Time;durP1;ratioP1;P1;durP2;ratioP2;P2;SDS_P1;SDS_P2;PMS_P1;PMS_P2;Temp;Humidity;BMP_temperature;BMP_pressure;BME280_temperature;BME280_humidity;BME280_pressure;Samples;Min_cycle;Max_cycle;Signal;HPM_P1;HPM_P2
2021/03/14 00:02:07;;;;;;;9.93;2.00;;;6.60;92.80;;;;;;5077162;28;20016;-90
2021/03/14 00:04:33;;;;;;;8.60;1.77;;;6.60;93.30;;;;;;5094040;28;20020;-90
2021/03/14 00:06:58;;;;;;;9.68;1.75;;;6.60;92.70;;;;;;5077074;28;20031;-89
2021/03/14 00:09:24;;;;;;;10.75;2.05;;;6.60;92.70;;;;;;5079258;28;20098;-90
2021/03/14 00:11:49;;;;;;;13.70;2.03;;;6.50;93.20;;;;;;5077333;28;20026;-89
2021/03/14 00:14:15;;;;;;;8.15;1.95;;;6.50;93.10;;;;;;5076213;28;20032;-89
2021/03/14 00:16:40;;;;;;;9.57;1.83;;;6.60;93.20;;;;;;5075469;28;20055;-90
2021/03/14 00:19:06;;;;;;;7.95;2.08;;;6.50;93.30;;;;;;5094341;28;20028;-89
2021/03/14 00:21:31;;;;;;;12.13;2.13;;;6.60;93.30;;;;;;5059013;28;20445;-88
2021/03/14 00:23:57;;;;;;;6.30;1.77;;;6.60;92.90;;;;;;5045395;28;20026;-89
2021/03/14 00:26:23;;;;;;;7.95;1.73;;;6.50;93.30;;;;;;5059006;28;20111;-88
2021/03/14 00:28:48;;;;;;;9.27;2.67;;;6.60;93.50;;;;;;5075927;28;20054;-88
2021/03/14 00:31:14;;;;;;;9.57;1.75;;;6.60;93.50;;;;;;5075560;28;20019;-89
2021/03/14 00:33:39;;;;;;;10.43;1.70;;;6.50;93.20;;;;;;5078844;28;20028;-90
2021/03/14 00:36:06;;;;;;;8.75;1.67;;;6.60;93.40;;;;;;5064392;28;20039;-89
2021/03/14 00:38:31;;;;;;;8.55;1.73;;;6.60;93.40;;;;;;5080965;28;20020;-88
2021/03/14 00:40:57;;;;;;;13.57;1.88;;;6.60;93.70;;;;;;5077750;28;20024;-89
2021/03/14 00:43:22;;;;;;;9.57;1.85;;;6.60;93.30;;;;;;5076132;28;20020;-91
2021/03/14 00:45:48;;;;;;;10.75;2.40;;;6.60;93.60;;;;;;5078699;28;20024;-89
2021/03/14 00:48:14;;;;;;;7.53;2.45;;;6.60;93.40;;;;;;5092004;28;20023;-91
2021/03/14 00:50:42;;;;;;;12.15;1.90;;;6.60;93.70;;;;;;5082097;28;20044;-90
2021/03/14 00:53:08;;;;;;;9.25;1.80;;;6.60;93.50;;;;;;5076822;28;20040;-92
2021/03/14 00:55:34;;;;;;;10.68;1.77;;;6.50;92.90;;;;;;5065296;28;20115;-91
2021/03/14 00:58:00;;;;;;;8.52;1.85;;;6.60;93.10;;;;;;5058864;28;20056;-90
2021/03/14 01:00:26;;;;;;;9.77;2.60;;;6.60;93.20;;;;;;5062201;28;20028;-90
2021/03/14 01:02:52;;;;;;;10.50;1.63;;;6.50;93.20;;;;;;5063240;28;20031;-90
2021/03/14 01:05:17;;;;;;;8.02;2.40;;;6.60;93.00;;;;;;5072467;28;20012;-90
2021/03/14 01:07:44;;;;;;;7.95;2.15;;;6.50;93.30;;;;;;5073021;28;20043;-91
2021/03/14 01:10:12;;;;;;;7.68;1.92;;;6.50;92.90;;;;;;5072680;28;20024;-91
2021/03/14 01:12:39;;;;;;;12.43;1.92;;;6.50;93.00;;;;;;5048455;28;20028;-90
2021/03/14 01:15:10;;;;;;;10.82;1.75;;;6.60;93.10;;;;;;5073963;28;20020;-92
2021/03/14 01:17:37;;;;;;;11.18;1.92;;;6.50;93.30;;;;;;5071805;28;20024;-90
2021/03/14 01:20:05;;;;;;;11.73;2.28;;;6.60;93.10;;;;;;5071537;28;20107;-90
2021/03/14 01:22:30;;;;;;;10.23;1.73;;;6.60;93.40;;;;;;5082325;28;20029;-91
2021/03/14 01:24:56;;;;;;;8.10;1.70;;;6.60;93.20;;;;;;5072847;28;20036;-91
2021/03/14 01:27:21;;;;;;;7.88;2.10;;;6.60;93.20;;;;;;5088484;28;20028;-91
2021/03/14 01:29:47;;;;;;;5.85;1.58;;;6.60;93.50;;;;;;5062845;28;20471;-89
2021/03/14 01:32:13;;;;;;;7.75;2.00;;;6.60;93.10;;;;;;5062155;28;20020;-91
2021/03/14 01:34:38;;;;;;;12.30;3.00;;;6.60;93.50;;;;;;5043364;28;20029;-90
2021/03/14 01:37:04;;;;;;;6.80;1.40;;;6.60;93.00;;;;;;5085439;28;20025;-90
2021/03/14 01:39:30;;;;;;;10.15;1.60;;;6.60;93.40;;;;;;5074968;28;20029;-90
2021/03/14 01:41:55;;;;;;;7.57;1.50;;;6.60;92.90;;;;;;5076951;28;20028;-90
2021/03/14 01:44:21;;;;;;;5.68;1.58;;;6.60;93.00;;;;;;5077005;28;20094;-89
2021/03/14 01:46:46;;;;;;;5.00;1.60;;;6.60;93.20;;;;;;5058539;28;20119;-88
2021/03/14 01:49:13;;;;;;;10.68;1.85;;;6.60;93.30;;;;;;5048220;28;20111;-89
2021/03/14 01:51:38;;;;;;;8.75;1.88;;;6.60;92.90;;;;;;5083255;28;20048;-90
2021/03/14 01:54:04;;;;;;;11.60;2.30;;;6.60;93.00;;;;;;5075650;28;20131;-89
2021/03/14 01:56:30;;;;;;;9.43;1.70;;;6.60;93.20;;;;;;5092533;28;20033;-89
2021/03/14 01:58:55;;;;;;;9.15;2.13;;;6.60;92.70;;;;;;5075636;28;20047;-90
2021/03/14 02:01:21;;;;;;;12.95;3.50;;;6.60;92.50;;;;;;5050227;28;20027;-90
2021/03/14 02:03:47;;;;;;;10.45;1.80;;;6.60;92.90;;;;;;5062525;28;20028;-91
2021/03/14 02:06:13;;;;;;;15.75;2.97;;;6.60;92.90;;;;;;5081415;28;20032;-89
2021/03/14 02:08:38;;;;;;;13.25;2.08;;;6.70;93.10;;;;;;5078267;28;20075;-89
2021/03/14 02:11:04;;;;;;;7.50;1.60;;;6.60;93.30;;;;;;5079092;28;20028;-90
2021/03/14 02:13:37;;;;;;;11.20;2.47;;;6.60;93.10;;;;;;5075997;28;20032;-90
2021/03/14 02:16:06;;;;;;;11.38;2.10;;;6.60;92.60;;;;;;5076817;28;20086;-90
2021/03/14 02:18:35;;;;;;;11.00;2.00;;;6.60;93.00;;;;;;5085371;28;20097;-89
2021/03/14 02:21:02;;;;;;;9.52;2.03;;;6.60;92.60;;;;;;5080941;28;20035;-90
2021/03/14 02:23:55;;;;;;;9.75;1.50;;;6.60;93.00;;;;;;5066657;28;20041;-86
2021/03/14 02:26:25;;;;;;;7.10;1.20;;;6.70;93.10;;;;;;5077287;28;20020;-90
2021/03/14 02:28:54;;;;;;;9.20;1.52;;;6.70;93.20;;;;;;5074572;28;20035;-89
2021/03/14 02:31:23;;;;;;;12.75;2.05;;;6.70;93.10;;;;;;5088947;28;20016;-90
2021/03/14 02:34:21;;;;;;;15.75;4.13;;;6.60;92.40;;;;;;5054904;28;20021;-89
2021/03/14 02:36:48;;;;;;;13.95;2.75;;;6.60;92.80;;;;;;5046787;28;20029;-90
2021/03/14 02:39:16;;;;;;;10.02;2.17;;;6.60;92.90;;;;;;5075769;28;20024;-91
2021/03/14 02:41:44;;;;;;;12.70;2.08;;;6.60;93.00;;;;;;5091436;28;20030;-90
2021/03/14 02:44:14;;;;;;;9.80;2.13;;;6.70;93.00;;;;;;5069344;28;20020;-91
2021/03/14 02:46:41;;;;;;;8.60;1.40;;;6.70;92.90;;;;;;5092713;28;20020;-91
2021/03/14 02:49:07;;;;;;;13.98;1.83;;;6.70;92.90;;;;;;5075834;28;20025;-88
2021/03/14 02:51:34;;;;;;;11.50;2.00;;;6.70;92.60;;;;;;5053145;28;20036;-90
2021/03/14 02:54:00;;;;;;;10.93;2.00;;;6.60;92.20;;;;;;5078757;28;20040;-90
2021/03/14 02:56:26;;;;;;;15.18;2.83;;;6.60;92.60;;;;;;5078715;28;20024;-89
2021/03/14 02:58:53;;;;;;;15.73;2.88;;;6.60;92.30;;;;;;5078275;28;20077;-90
2021/03/14 03:01:20;;;;;;;12.35;2.72;;;6.60;92.00;;;;;;5091651;28;20023;-90
2021/03/14 03:03:46;;;;;;;12.52;2.40;;;6.60;92.40;;;;;;5100142;28;20020;-89
2021/03/14 03:06:13;;;;;;;11.60;2.30;;;6.60;92.10;;;;;;5071661;28;20030;-89
2021/03/14 03:08:39;;;;;;;10.93;1.83;;;6.60;92.10;;;;;;5082030;28;20025;-89
2021/03/14 03:11:13;;;;;;;11.95;2.22;;;6.60;92.40;;;;;;5066110;28;20020;-89
2021/03/14 03:13:40;;;;;;;9.48;1.95;;;6.60;92.30;;;;;;5095326;28;20024;-91
2021/03/14 03:16:10;;;;;;;10.88;2.40;;;6.60;92.30;;;;;;5038900;28;20025;-90
2021/03/14 03:18:36;;;;;;;13.02;2.80;;;6.60;92.20;;;;;;5067801;28;20452;-90
2021/03/14 03:21:02;;;;;;;9.35;2.60;;;6.60;92.00;;;;;;5074329;28;20032;-90
2021/03/14 03:23:28;;;;;;;16.13;2.40;;;6.60;92.30;;;;;;5076482;28;20025;-90
2021/03/14 03:25:53;;;;;;;8.60;2.05;;;6.60;92.20;;;;;;5054995;28;20606;-90
2021/03/14 03:28:19;;;;;;;12.32;2.17;;;6.60;92.00;;;;;;5083414;28;20047;-91
2021/03/14 03:30:45;;;;;;;14.55;3.60;;;6.50;92.10;;;;;;5080071;28;20464;-89
2021/03/14 03:33:11;;;;;;;9.27;1.90;;;6.60;92.30;;;;;;5077657;28;20036;-90
2021/03/14 03:35:36;;;;;;;9.13;2.45;;;6.50;92.50;;;;;;5082917;28;20048;-90
2021/03/14 03:38:03;;;;;;;11.93;2.00;;;6.50;92.40;;;;;;5094111;28;20024;-91
2021/03/14 03:40:32;;;;;;;12.10;2.67;;;6.50;92.30;;;;;;5065277;28;20539;-89
2021/03/14 03:43:21;;;;;;;9.02;2.83;;;6.50;92.60;;;;;;5080742;28;20021;-90
2021/03/14 03:45:53;;;;;;;8.88;2.08;;;6.50;92.60;;;;;;5063611;28;20056;-90
2021/03/14 03:48:26;;;;;;;14.05;2.65;;;6.40;92.90;;;;;;5074670;28;20021;-90
2021/03/14 03:50:56;;;;;;;8.60;1.92;;;6.40;92.80;;;;;;5079876;28;20044;-90
2021/03/14 03:53:23;;;;;;;12.13;3.13;;;6.40;93.00;;;;;;5095647;28;20012;-89
2021/03/14 03:55:51;;;;;;;11.68;1.90;;;6.50;93.00;;;;;;5077500;28;20465;-90
2021/03/14 03:58:18;;;;;;;10.13;2.42;;;6.40;92.90;;;;;;5096059;28;20020;-90
2021/03/14 04:00:45;;;;;;;11.57;1.70;;;6.40;92.90;;;;;;5095673;28;20078;-89
2021/03/14 04:03:11;;;;;;;11.98;1.70;;;6.40;93.10;;;;;;5096648;28;20071;-90
2021/03/14 04:05:37;;;;;;;14.48;2.45;;;6.40;92.90;;;;;;5095876;28;20022;-88
2021/03/14 04:08:04;;;;;;;7.20;1.80;;;6.30;93.00;;;;;;5100991;28;20028;-89
2021/03/14 04:10:30;;;;;;;12.55;2.45;;;6.30;93.10;;;;;;5098387;28;20043;-89
2021/03/14 04:12:58;;;;;;;12.43;2.45;;;6.30;93.20;;;;;;5071425;28;20209;-87
2021/03/14 04:15:27;;;;;;;9.55;1.85;;;6.30;93.10;;;;;;5084327;28;20020;-89
2021/03/14 04:17:55;;;;;;;13.68;3.22;;;6.20;93.10;;;;;;5090396;28;20463;-89
2021/03/14 04:20:26;;;;;;;9.88;2.00;;;6.20;93.20;;;;;;5086404;28;20106;-90
2021/03/14 04:22:56;;;;;;;9.82;2.33;;;6.20;93.30;;;;;;5082310;28;20012;-90
2021/03/14 04:25:23;;;;;;;7.13;1.80;;;6.20;93.20;;;;;;5096673;28;20046;-90
2021/03/14 04:27:50;;;;;;;10.80;2.75;;;6.20;93.40;;;;;;5069675;28;20314;-90
2021/03/14 04:30:16;;;;;;;10.82;2.88;;;6.20;93.30;;;;;;5065316;28;20016;-91
2021/03/14 04:32:43;;;;;;;12.18;2.40;;;6.20;93.30;;;;;;5102797;28;20494;-90
2021/03/14 04:35:10;;;;;;;13.20;2.08;;;6.20;93.30;;;;;;5072849;28;20027;-90
2021/03/14 04:37:39;;;;;;;11.75;2.47;;;6.20;93.30;;;;;;5083748;28;20754;-90
2021/03/14 04:40:10;;;;;;;13.38;3.33;;;6.20;93.50;;;;;;5075324;28;20027;-90
2021/03/14 04:42:39;;;;;;;18.50;3.17;;;6.20;93.30;;;;;;5094163;28;20032;-90
2021/03/14 04:45:06;;;;;;;13.23;2.35;;;6.20;93.40;;;;;;5089818;28;20011;-90
2021/03/14 04:47:32;;;;;;;11.43;2.65;;;6.20;93.40;;;;;;5075464;28;20044;-90
2021/03/14 04:49:58;;;;;;;16.05;2.45;;;6.20;93.40;;;;;;5090569;28;20055;-90
2021/03/14 04:52:24;;;;;;;10.95;1.63;;;6.20;93.40;;;;;;5083104;28;20043;-89
2021/03/14 04:54:51;;;;;;;12.30;2.00;;;6.20;93.50;;;;;;5079226;28;20047;-90
2021/03/14 04:57:18;;;;;;;5.13;1.45;;;6.20;93.60;;;;;;5094558;28;20476;-88
2021/03/14 04:59:45;;;;;;;10.13;2.08;;;6.30;93.70;;;;;;5076594;28;20144;-89
2021/03/14 05:02:12;;;;;;;17.65;2.22;;;6.20;93.50;;;;;;5075897;28;20131;-89
2021/03/14 05:04:38;;;;;;;12.07;2.00;;;6.30;93.50;;;;;;5084850;28;20027;-90
2021/03/14 05:07:05;;;;;;;12.45;3.20;;;6.30;93.60;;;;;;5075239;28;20066;-90
2021/03/14 05:09:32;;;;;;;18.08;1.88;;;6.30;93.50;;;;;;5086761;28;20118;-90
2021/03/14 05:11:58;;;;;;;12.00;2.42;;;6.20;93.40;;;;;;5043507;28;20021;-90
2021/03/14 05:14:24;;;;;;;11.93;2.00;;;6.20;93.40;;;;;;5056106;28;20065;-90
2021/03/14 05:16:51;;;;;;;13.35;2.15;;;6.10;93.40;;;;;;5068248;28;20502;-89
2021/03/14 05:19:19;;;;;;;10.82;1.85;;;6.10;93.50;;;;;;5075538;28;20021;-89
2021/03/14 05:21:44;;;;;;;10.80;1.95;;;6.20;93.50;;;;;;5066687;28;20482;-89
2021/03/14 05:24:13;;;;;;;13.80;2.13;;;6.20;93.50;;;;;;5073640;28;20032;-90
2021/03/14 05:26:43;;;;;;;7.45;1.90;;;6.20;93.60;;;;;;5032292;28;20050;-90
2021/03/14 05:29:11;;;;;;;13.27;2.47;;;6.10;93.60;;;;;;5078323;28;20107;-89
2021/03/14 05:31:38;;;;;;;9.95;2.17;;;6.10;93.80;;;;;;5077544;28;20024;-90
2021/03/14 05:34:13;;;;;;;11.80;2.75;;;6.10;94.00;;;;;;5070292;28;20028;-88
2021/03/14 05:36:38;;;;;;;10.05;2.70;;;6.10;94.50;;;;;;5073428;28;20375;-91
2021/03/14 05:39:05;;;;;;;11.63;3.05;;;6.10;94.70;;;;;;5068917;28;20151;-91
2021/03/14 05:41:33;;;;;;;13.70;4.38;;;6.10;94.90;;;;;;5075489;28;20020;-91
2021/03/14 05:44:00;;;;;;;8.90;2.70;;;6.10;95.00;;;;;;5076565;28;20024;-90
2021/03/14 05:46:27;;;;;;;9.32;3.22;;;6.00;95.30;;;;;;5093334;28;20058;-91
2021/03/14 05:48:53;;;;;;;10.02;2.95;;;6.00;95.40;;;;;;5092574;28;20479;-90
2021/03/14 05:51:55;;;;;;;14.38;4.00;;;6.10;95.50;;;;;;5057603;28;20063;-90
2021/03/14 05:54:21;;;;;;;10.20;3.95;;;6.00;95.70;;;;;;5064170;28;20032;-89
2021/03/14 05:56:49;;;;;;;14.43;4.25;;;5.90;95.80;;;;;;5075364;28;20119;-86
2021/03/14 05:59:17;;;;;;;11.63;4.45;;;5.90;96.00;;;;;;5064653;28;20387;-90
2021/03/14 06:01:51;;;;;;;13.05;3.75;;;5.80;96.10;;;;;;5056564;28;20016;-89
2021/03/14 06:04:18;;;;;;;10.15;3.15;;;5.80;96.30;;;;;;5084335;28;20029;-88
2021/03/14 06:06:46;;;;;;;8.32;4.13;;;5.80;96.30;;;;;;5079147;28;20033;-89
2021/03/14 06:09:13;;;;;;;10.18;3.60;;;5.80;96.40;;;;;;5075665;28;20107;-90
2021/03/14 06:11:39;;;;;;;12.70;4.10;;;5.80;96.40;;;;;;5074713;28;20028;-89
2021/03/14 06:14:04;;;;;;;8.05;3.80;;;5.80;96.50;;;;;;5068151;28;20029;-88
2021/03/14 06:16:30;;;;;;;11.32;4.25;;;5.70;96.70;;;;;;5066649;28;20028;-89
2021/03/14 06:18:56;;;;;;;13.18;4.60;;;5.70;96.70;;;;;;5054143;28;20045;-89
2021/03/14 06:21:27;;;;;;;9.50;3.92;;;5.60;96.80;;;;;;5057588;28;20020;-88
2021/03/14 06:23:54;;;;;;;10.52;4.50;;;5.70;96.90;;;;;;5074928;28;20057;-89
2021/03/14 06:26:20;;;;;;;10.77;4.15;;;5.70;96.90;;;;;;5066021;28;20464;-86
2021/03/14 06:28:45;;;;;;;9.55;4.55;;;5.70;97.00;;;;;;5060182;28;20115;-87
2021/03/14 06:31:22;;;;;;;13.10;5.15;;;5.70;97.10;;;;;;5044473;28;20111;-89
2021/03/14 06:33:49;;;;;;;11.77;6.28;;;5.70;97.20;;;;;;5060998;28;20070;-88
2021/03/14 06:36:21;;;;;;;14.88;5.80;;;5.70;97.30;;;;;;5057896;28;20025;-88
2021/03/14 06:38:49;;;;;;;9.07;4.20;;;5.60;97.40;;;;;;5070385;28;20444;-87
2021/03/14 06:41:17;;;;;;;10.02;3.70;;;5.70;97.30;;;;;;5076746;28;20023;-88
2021/03/14 06:44:03;;;;;;;9.25;4.28;;;5.70;97.30;;;;;;5077216;28;20367;-88
2021/03/14 06:46:33;;;;;;;15.32;5.75;;;5.70;97.30;;;;;;5088748;28;20075;-88
2021/03/14 06:49:12;;;;;;;9.75;4.18;;;5.70;97.30;;;;;;5071459;28;20139;-88
2021/03/14 06:51:46;;;;;;;11.77;4.82;;;5.70;97.30;;;;;;5052595;28;20049;-88
2021/03/14 06:54:20;;;;;;;6.60;4.13;;;5.70;97.40;;;;;;5053824;28;20048;-85
2021/03/14 06:57:05;;;;;;;7.82;3.97;;;5.70;97.30;;;;;;5053905;28;20383;-88
2021/03/14 06:59:33;;;;;;;8.80;4.53;;;5.70;97.40;;;;;;5054794;28;20040;-88
2021/03/14 07:02:13;;;;;;;6.63;4.72;;;5.70;97.40;;;;;;5055039;28;20059;-87
2021/03/14 07:04:40;;;;;;;10.23;5.10;;;5.80;97.40;;;;;;5054521;28;20098;-88
2021/03/14 07:07:11;;;;;;;13.18;4.90;;;5.70;97.40;;;;;;5053433;28;20029;-88
2021/03/14 07:09:37;;;;;;;11.40;5.80;;;5.70;97.50;;;;;;5037504;28;20079;-88
2021/03/14 07:12:15;;;;;;;8.95;4.47;;;5.70;97.50;;;;;;5052929;28;20029;-88
2021/03/14 07:14:41;;;;;;;12.10;5.30;;;5.70;97.50;;;;;;5054760;28;20095;-88
2021/03/14 07:17:08;;;;;;;9.38;5.60;;;5.80;97.60;;;;;;5020798;28;20116;-88
2021/03/14 07:19:33;;;;;;;12.38;5.63;;;5.70;97.70;;;;;;5037785;28;20028;-89
2021/03/14 07:22:04;;;;;;;12.95;5.47;;;5.70;97.80;;;;;;5053454;28;20017;-87
2021/03/14 07:24:41;;;;;;;11.73;6.60;;;5.70;97.80;;;;;;5053956;28;20029;-88
2021/03/14 07:27:08;;;;;;;11.88;6.57;;;5.80;97.90;;;;;;5052957;28;20078;-89
2021/03/14 07:29:35;;;;;;;10.60;5.65;;;5.70;97.90;;;;;;5054492;28;20036;-88
2021/03/14 07:32:02;;;;;;;11.05;7.40;;;5.80;97.90;;;;;;5054238;28;20465;-87
2021/03/14 07:34:28;;;;;;;17.33;9.48;;;5.80;97.90;;;;;;5054062;28;20053;-88
2021/03/14 07:36:54;;;;;;;13.40;6.72;;;5.80;98.00;;;;;;5037617;28;20039;-88
2021/03/14 07:39:21;;;;;;;15.15;8.25;;;5.80;98.00;;;;;;5053529;28;20039;-88
2021/03/14 07:41:47;;;;;;;13.25;6.82;;;5.80;98.00;;;;;;5053758;28;20033;-88
2021/03/14 07:44:16;;;;;;;13.77;7.80;;;5.80;98.00;;;;;;5054421;28;20071;-88
2021/03/14 07:46:43;;;;;;;15.43;7.82;;;5.90;97.90;;;;;;5052933;28;20103;-89
2021/03/14 07:49:12;;;;;;;17.00;9.18;;;5.90;98.00;;;;;;5053585;28;20105;-88
2021/03/14 07:51:41;;;;;;;16.33;8.27;;;5.90;98.10;;;;;;5063239;28;20044;-89
2021/03/14 07:54:09;;;;;;;18.70;8.52;;;5.90;98.10;;;;;;5073612;28;20040;-89
2021/03/14 07:56:37;;;;;;;17.00;8.90;;;6.00;98.10;;;;;;5058890;28;20032;-88
2021/03/14 07:59:04;;;;;;;20.15;9.50;;;6.00;98.00;;;;;;5075465;28;20016;-88
2021/03/14 08:01:32;;;;;;;22.23;10.25;;;6.10;98.20;;;;;;5062105;28;20102;-88
2021/03/14 08:03:58;;;;;;;19.17;10.68;;;6.10;98.20;;;;;;5075191;28;20027;-87
2021/03/14 08:06:43;;;;;;;22.20;9.77;;;6.10;98.30;;;;;;5069725;28;20031;-88
2021/03/14 08:09:08;;;;;;;22.23;11.02;;;6.10;98.70;;;;;;5084716;28;20036;-88
2021/03/14 08:11:35;;;;;;;13.32;8.18;;;6.20;98.40;;;;;;5076529;28;20020;-88
2021/03/14 08:14:00;;;;;;;17.55;8.98;;;6.20;98.40;;;;;;5074746;28;20020;-88
2021/03/14 08:16:26;;;;;;;16.30;9.10;;;6.30;98.40;;;;;;5082434;28;20032;-88
2021/03/14 08:18:53;;;;;;;20.92;10.05;;;6.30;98.40;;;;;;5069892;28;20044;-88
2021/03/14 08:21:22;;;;;;;15.45;8.68;;;6.30;98.40;;;;;;5045370;28;20078;-88
2021/03/14 08:23:55;;;;;;;18.52;9.63;;;6.40;98.50;;;;;;5088943;28;20031;-88
2021/03/14 08:26:27;;;;;;;17.83;8.48;;;6.40;98.50;;;;;;5056985;28;20031;-88
2021/03/14 08:29:11;;;;;;;18.63;10.45;;;6.50;98.60;;;;;;5082711;28;20062;-89
2021/03/14 08:31:48;;;;;;;19.20;9.75;;;6.50;98.60;;;;;;5065809;28;20071;-89
2021/03/14 08:34:23;;;;;;;17.73;9.18;;;6.50;98.60;;;;;;5075217;28;20104;-88
2021/03/14 08:36:49;;;;;;;22.20;9.65;;;6.60;98.70;;;;;;5073611;28;20033;-89
2021/03/14 08:39:32;;;;;;;21.23;8.38;;;6.60;98.70;;;;;;5069047;28;20012;-88
2021/03/14 08:42:01;;;;;;;15.57;8.48;;;6.70;98.70;;;;;;5074478;28;20076;-88
2021/03/14 08:44:40;;;;;;;18.60;8.90;;;6.70;98.70;;;;;;5074463;28;20008;-88
2021/03/14 08:47:21;;;;;;;13.18;7.65;;;6.70;98.70;;;;;;5076702;28;20032;-88
2021/03/14 08:49:48;;;;;;;;;;;6.70;98.80;;;;;;5074135;28;20029;-88
2021/03/14 08:52:15;;;;;;;14.13;6.80;;;6.80;98.80;;;;;;5064148;28;19916;-88
2021/03/14 08:54:48;;;;;;;12.27;7.13;;;6.80;98.70;;;;;;5072625;28;20020;-88
2021/03/14 08:57:14;;;;;;;13.07;6.97;;;6.90;98.80;;;;;;5062233;28;20534;-88
2021/03/14 08:59:46;;;;;;;21.30;9.25;;;6.90;98.80;;;;;;5072939;28;20476;-88
2021/03/14 09:02:21;;;;;;;14.57;7.43;;;7.00;98.90;;;;;;5079559;28;20098;-89
2021/03/14 09:04:48;;;;;;;18.42;7.75;;;7.00;98.90;;;;;;5076442;28;20649;-88
2021/03/14 09:07:14;;;;;;;17.58;7.05;;;7.10;98.90;;;;;;5052723;28;20485;-89
2021/03/14 09:09:39;;;;;;;13.43;6.68;;;7.20;98.80;;;;;;5072898;28;20036;-88
2021/03/14 09:12:11;;;;;;;14.88;6.00;;;7.20;98.80;;;;;;5049942;28;20530;-87
2021/03/14 09:14:41;;;;;;;12.93;5.63;;;7.20;98.70;;;;;;5061426;28;20020;-89
2021/03/14 09:17:30;;;;;;;16.70;7.50;;;7.20;98.60;;;;;;5054742;28;20024;-88
2021/03/14 09:19:56;;;;;;;13.05;6.00;;;7.30;98.60;;;;;;5064175;28;20066;-88
2021/03/14 09:22:27;;;;;;;16.33;6.43;;;7.30;98.50;;;;;;5053883;28;20021;-89
2021/03/14 09:24:54;;;;;;;12.00;5.63;;;7.40;98.50;;;;;;5067791;28;20017;-88
2021/03/14 09:27:28;;;;;;;12.60;5.30;;;7.40;98.50;;;;;;5067150;28;20017;-89
2021/03/14 09:29:57;;;;;;;12.52;5.85;;;7.50;98.50;;;;;;5061160;28;20029;-87
2021/03/14 09:32:37;;;;;;;16.30;5.55;;;7.50;98.50;;;;;;5069404;28;20044;-89
2021/03/14 09:35:17;;;;;;;17.00;6.60;;;7.50;98.50;;;;;;5061824;28;20044;-88
2021/03/14 09:37:44;;;;;;;12.35;5.78;;;7.50;98.40;;;;;;5053654;28;20021;-87
2021/03/14 09:40:14;;;;;;;14.23;5.97;;;7.50;98.20;;;;;;5061358;28;20036;-88
2021/03/14 09:42:41;;;;;;;18.23;6.03;;;7.60;98.20;;;;;;5069108;28;20013;-88
2021/03/14 09:45:12;;;;;;;16.35;6.03;;;7.60;98.10;;;;;;5052519;28;20364;-88
2021/03/14 09:47:58;;;;;;;12.02;6.10;;;7.60;98.10;;;;;;5064748;28;20473;-88
2021/03/14 09:50:24;;;;;;;17.67;6.75;;;7.70;98.10;;;;;;5052123;28;20032;-88
2021/03/14 09:52:50;;;;;;;19.23;7.15;;;7.70;98.30;;;;;;5064365;28;20045;-89
2021/03/14 09:55:23;;;;;;;11.65;6.68;;;7.70;98.00;;;;;;5067349;28;20078;-88
2021/03/14 09:57:49;;;;;;;16.13;5.97;;;7.80;98.00;;;;;;5064903;28;20017;-87
2021/03/14 10:00:38;;;;;;;13.73;5.30;;;7.80;97.90;;;;;;5040389;28;20095;-89
2021/03/14 10:03:06;;;;;;;13.40;5.82;;;7.80;97.80;;;;;;5056460;28;20028;-87
2021/03/14 10:05:42;;;;;;;15.75;5.55;;;7.80;97.60;;;;;;5068319;28;20047;-88
2021/03/14 10:08:15;;;;;;;12.90;5.15;;;7.90;97.60;;;;;;5075338;28;21489;-86
2021/03/14 10:10:41;;;;;;;11.18;4.65;;;7.90;97.70;;;;;;5066840;28;20012;-91
2021/03/14 10:13:08;;;;;;;22.67;7.00;;;7.90;97.70;;;;;;5074890;28;20107;-88
2021/03/14 10:15:35;;;;;;;13.80;6.30;;;8.00;97.60;;;;;;5053725;28;20068;-87
2021/03/14 10:18:02;;;;;;;14.27;4.95;;;8.10;97.40;;;;;;5074840;28;20472;-85
2021/03/14 10:20:28;;;;;;;10.13;4.85;;;8.00;97.50;;;;;;5074062;28;20204;-88
2021/03/14 10:23:07;;;;;;;14.30;5.20;;;8.10;97.50;;;;;;5075528;28;20376;-87
2021/03/14 10:25:35;;;;;;;10.77;4.10;;;8.10;97.30;;;;;;5055878;28;20115;-87
2021/03/14 10:28:19;;;;;;;13.27;4.60;;;8.20;97.00;;;;;;5054263;28;20053;-88
2021/03/14 10:30:48;;;;;;;11.23;4.28;;;8.20;96.80;;;;;;5060154;28;20017;-94
2021/03/14 10:33:16;;;;;;;14.65;5.30;;;8.20;96.90;;;;;;5074818;28;20085;-88
2021/03/14 10:35:43;;;;;;;10.80;3.97;;;8.30;96.90;;;;;;5087188;28;20051;-87
2021/03/14 10:38:18;;;;;;;11.57;4.20;;;8.40;97.10;;;;;;5073159;28;20017;-93
2021/03/14 10:40:45;;;;;;;11.45;3.70;;;8.40;97.20;;;;;;5077350;28;20033;-93
2021/03/14 10:43:25;;;;;;;12.00;3.47;;;8.50;97.20;;;;;;5075197;28;20091;-88
2021/03/14 10:45:53;;;;;;;8.35;2.90;;;8.60;96.90;;;;;;5062621;28;20021;-92
2021/03/14 10:48:26;;;;;;;9.30;3.60;;;8.60;96.80;;;;;;5073232;28;20027;-96
2021/03/14 10:51:02;;;;;;;8.65;2.75;;;8.60;96.50;;;;;;5075142;28;20028;-93
2021/03/14 10:53:28;;;;;;;8.32;2.50;;;8.70;94.80;;;;;;5079962;28;20484;-91
2021/03/14 10:56:05;;;;;;;7.68;2.30;;;8.70;95.70;;;;;;5059615;28;20035;-92
2021/03/14 10:58:56;;;;;;;8.52;2.58;;;8.80;95.80;;;;;;5098145;28;20024;-96
2021/03/14 11:01:35;;;;;;;7.65;2.88;;;8.90;95.30;;;;;;5088128;28;20468;-92
2021/03/14 11:04:05;;;;;;;9.57;2.90;;;8.90;95.20;;;;;;5077080;28;20413;-86
2021/03/14 11:06:31;;;;;;;6.47;2.00;;;9.00;95.60;;;;;;5076099;28;20024;-85
2021/03/14 11:09:06;;;;;;;3.70;1.88;;;9.20;94.90;;;;;;5076169;28;20028;-89
2021/03/14 11:11:39;;;;;;;6.63;1.90;;;9.20;94.70;;;;;;5089792;28;20039;-90
2021/03/14 11:14:39;;;;;;;3.95;1.60;;;9.10;94.50;;;;;;5076344;28;20478;-87
2021/03/14 11:17:17;;;;;;;6.43;1.90;;;9.00;94.90;;;;;;5052230;28;20028;-87
2021/03/14 11:19:45;;;;;;;3.17;1.50;;;9.00;95.20;;;;;;5094104;28;20033;-87
2021/03/14 11:22:19;;;;;;;3.38;1.50;;;9.00;95.50;;;;;;5088638;28;20073;-87
2021/03/14 11:24:45;;;;;;;5.45;1.60;;;9.00;95.40;;;;;;5078783;28;20367;-87
2021/03/14 11:27:12;;;;;;;3.80;1.75;;;8.90;94.60;;;;;;5075657;28;20052;-87
2021/03/14 11:29:39;;;;;;;9.15;2.08;;;8.90;94.70;;;;;;5078735;28;20028;-88
2021/03/14 11:32:06;;;;;;;7.22;1.88;;;9.00;95.10;;;;;;5078989;28;20456;-87
2021/03/14 11:34:32;;;;;;;5.82;1.58;;;9.00;94.80;;;;;;5065972;28;20528;-87
2021/03/14 11:36:58;;;;;;;6.22;1.70;;;9.00;95.00;;;;;;5091332;28;20087;-88
2021/03/14 11:39:24;;;;;;;6.85;1.80;;;9.00;95.20;;;;;;5092669;28;20096;-88
2021/03/14 11:41:50;;;;;;;6.43;1.67;;;9.00;95.30;;;;;;5059117;28;20048;-87
2021/03/14 11:44:16;;;;;;;5.88;2.03;;;9.10;95.10;;;;;;5058064;28;20045;-86
2021/03/14 11:46:45;;;;;;;8.32;2.13;;;9.20;95.00;;;;;;5087568;28;20028;-88
2021/03/14 11:49:10;;;;;;;7.28;2.67;;;9.20;94.90;;;;;;5092979;28;20527;-87
2021/03/14 11:51:36;;;;;;;7.35;2.20;;;9.20;94.80;;;;;;5054484;28;20147;-87
2021/03/14 11:54:02;;;;;;;5.57;2.00;;;9.30;94.50;;;;;;5068446;28;20167;-88
2021/03/14 11:56:28;;;;;;;11.55;2.42;;;9.30;94.70;;;;;;5075781;28;20054;-84
2021/03/14 11:58:57;;;;;;;5.18;2.17;;;9.30;94.20;;;;;;5073850;28;20468;-83
2021/03/14 12:01:25;;;;;;;5.60;1.80;;;9.40;94.80;;;;;;5073241;28;20016;-89
2021/03/14 12:03:51;;;;;;;6.38;1.83;;;9.40;93.40;;;;;;5078664;28;20017;-86
2021/03/14 12:06:16;;;;;;;7.00;1.60;;;9.50;93.30;;;;;;5076012;28;20542;-84
2021/03/14 12:08:42;;;;;;;6.50;2.00;;;9.60;92.90;;;;;;5084286;28;20098;-84
2021/03/14 12:11:07;;;;;;;4.00;1.40;;;9.60;92.90;;;;;;5086940;28;20027;-85
2021/03/14 12:13:34;;;;;;;6.80;2.53;;;9.60;92.70;;;;;;5060857;28;20024;-83
2021/03/14 12:16:00;;;;;;;10.20;2.15;;;9.70;92.80;;;;;;5064540;28;20020;-84
2021/03/14 12:18:27;;;;;;;7.85;1.85;;;9.70;90.70;;;;;;5090507;28;20345;-83
2021/03/14 12:20:53;;;;;;;5.35;1.58;;;9.70;91.80;;;;;;5075339;28;20547;-84
2021/03/14 12:23:18;;;;;;;7.30;1.55;;;9.70;91.80;;;;;;5089244;28;20094;-84
2021/03/14 12:25:45;;;;;;;5.75;1.50;;;9.80;91.60;;;;;;5061381;28;20422;-83
2021/03/14 12:28:10;;;;;;;7.72;1.63;;;9.80;91.70;;;;;;5080864;28;20024;-84
2021/03/14 12:30:36;;;;;;;8.65;2.25;;;9.80;91.50;;;;;;5033790;28;20025;-83
2021/03/14 12:33:02;;;;;;;7.93;1.58;;;9.80;91.40;;;;;;5053771;28;20021;-87
2021/03/14 12:35:28;;;;;;;7.55;1.80;;;9.90;91.60;;;;;;5072870;28;20027;-83
2021/03/14 12:37:53;;;;;;;8.93;1.70;;;9.90;91.10;;;;;;5092457;28;20124;-89
2021/03/14 12:40:20;;;;;;;5.65;1.38;;;10.00;91.20;;;;;;5091054;28;20027;-83
2021/03/14 12:42:45;;;;;;;8.85;1.90;;;10.00;91.20;;;;;;5072657;28;20028;-84
2021/03/14 12:45:11;;;;;;;5.32;1.60;;;10.00;90.30;;;;;;5059218;28;20043;-84
2021/03/14 12:47:37;;;;;;;8.60;1.85;;;10.10;90.60;;;;;;5086391;28;20048;-85
2021/03/14 12:50:07;;;;;;;9.07;1.73;;;10.10;90.60;;;;;;5072489;28;20050;-84
2021/03/14 12:52:33;;;;;;;9.25;2.05;;;10.10;90.40;;;;;;5099144;28;20071;-85
2021/03/14 12:54:59;;;;;;;7.78;2.03;;;10.20;88.90;;;;;;5077807;28;20389;-85
2021/03/14 12:57:25;;;;;;;8.65;1.95;;;10.20;90.10;;;;;;5073071;28;20043;-84
2021/03/14 12:59:50;;;;;;;8.38;1.85;;;10.20;90.00;;;;;;5068368;28;20020;-84